首页
METAR-TAF:

METAR-TAF

机场 :

仙谷国际机场

查亚普拉, 印度尼西亚

纬度: 02-34-37S, 经度: 140-30-58E, 海拔: 88米

当前天气观测

该预报发布于12分钟前的10:30 UTC
风速9节,风向
温度 29°C
湿度 70%
气压 1010 hPa
能见度10公里或以上
少量云层高于1300英尺

METAR: WAJJ 181030Z 10009KT 9999 FEW013 29/23 Q1010 NOSIG

时间: 17:42 (10:42 UTC)


TAF: 丢失

超过4000个机场的气象观测和天气预报(METAR&TAF报告)。

可查询的气象台以黄色和红色小点在地图上表示。

将鼠标移到小点上方,可查看气象台名称。

然后点击查看天气观测和预报。

如需切换地图:点击带黑十字的绿色按钮放大地图;点击带横线的绿色按钮缩小地图;或者点击绿色箭头查看邻近地区的地图。


METAR-TAF: